Hauptseite
METAR-TAF:

METAR-TAF

Flughäfen :

Guilin, China

Flughafen Guilin-Liangjiang

Breite: 25-20N, Länge: 110-18E, Höhe: 166 m

Beobachtung

Neuester Wetterbericht von vor 29 Minuten, um 21:00 UTC
Wind 2 kt aus Nordwest
Temperatur 18°C
Luftfeuchtigkeit 94%
Luftdruck 1011 hPa
Sichtweite: 6000 m

METAR: ZGKL 292100Z 32001MPS 6000 NSC 18/17 Q1011 NOSIG

Zeit: 05:29 (21:29 UTC)

Prognose

Neuester Wetterbericht von vor 6 Stunden und 26 Minuten, um 15:03 UTC
Gültige Prognose vom 29 um 18 UTC bis 30 um 18 UTC
Wind 2 kt aus unterschiedlichen Richtungen
Sichtweite: 6000 m

TAF: ZGKL 291503Z 2918/3018 VRB01MPS 6000 NSC TX27/3008Z TN16/2922Z

Wetterbeobachtungen und Prognosen von mehr als 4000 Flughäfen (METAR und TAF Bericht).

Die verfügbaren Stationen werden durch gelbe und rote Markierungen auf der Karte dargestellt.

Führen Sie die Maus auf sie, um den Namen der Station zu sehen.

Darauf klicken, um die Beobachtung von Wetterbeobachtungen und Prognosen zu sehen.

Um die Karte zu ändern : klicken Sie auf den grünen Tasten mit einem schwarzen Kreuz Zum Vergrößern, auf den grünen Button mit einem Gedankenstrich zu verkleinern, oder auf die grünen Pfeile für benachbarte Karten.


METAR-TAF: